sensor_id;sensor_type;location;lat;lon;timestamp;temperature;humidity
20862;DHT22;10591;52.532;13.348;2023-02-28T00:02:02;2.02;72.46
20862;DHT22;10591;52.532;13.348;2023-02-28T00:04:32;2.02;72.66
20862;DHT22;10591;52.532;13.348;2023-02-28T00:07:03;2.03;72.56
20862;DHT22;10591;52.532;13.348;2023-02-28T00:09:33;2.08;72.62
20862;DHT22;10591;52.532;13.348;2023-02-28T00:12:04;2.12;72.63
20862;DHT22;10591;52.532;13.348;2023-02-28T00:14:37;2.04;72.21
20862;DHT22;10591;52.532;13.348;2023-02-28T00:17:07;1.97;72.63
20862;DHT22;10591;52.532;13.348;2023-02-28T00:19:38;2.01;72.35
20862;DHT22;10591;52.532;13.348;2023-02-28T00:22:09;1.95;72.35
20862;DHT22;10591;52.532;13.348;2023-02-28T00:24:39;2.07;72.17
20862;DHT22;10591;52.532;13.348;2023-02-28T00:27:10;1.90;72.61
20862;DHT22;10591;52.532;13.348;2023-02-28T00:29:41;1.99;72.58
20862;DHT22;10591;52.532;13.348;2023-02-28T00:32:11;2.00;72.66
20862;DHT22;10591;52.532;13.348;2023-02-28T00:34:43;2.04;72.06
20862;DHT22;10591;52.532;13.348;2023-02-28T00:37:14;2.08;71.69
20862;DHT22;10591;52.532;13.348;2023-02-28T00:39:46;2.06;71.73
20862;DHT22;10591;52.532;13.348;2023-02-28T00:42:17;2.05;71.81
20862;DHT22;10591;52.532;13.348;2023-02-28T00:44:47;2.06;71.86
20862;DHT22;10591;52.532;13.348;2023-02-28T00:47:18;2.08;71.79
20862;DHT22;10591;52.532;13.348;2023-02-28T00:49:49;2.14;71.77
20862;DHT22;10591;52.532;13.348;2023-02-28T00:52:20;2.14;71.70
20862;DHT22;10591;52.532;13.348;2023-02-28T00:54:51;2.16;71.40
20862;DHT22;10591;52.532;13.348;2023-02-28T00:57:21;2.18;71.43
20862;DHT22;10591;52.532;13.348;2023-02-28T00:59:52;2.16;71.37
20862;DHT22;10591;52.532;13.348;2023-02-28T01:02:26;2.09;71.21
20862;DHT22;10591;52.532;13.348;2023-02-28T01:04:56;2.12;71.37
20862;DHT22;10591;52.532;13.348;2023-02-28T01:07:27;2.12;71.67
20862;DHT22;10591;52.532;13.348;2023-02-28T01:09:58;2.09;71.67
20862;DHT22;10591;52.532;13.348;2023-02-28T01:12:30;2.12;71.51
20862;DHT22;10591;52.532;13.348;2023-02-28T01:15:00;2.08;71.28
20862;DHT22;10591;52.532;13.348;2023-02-28T01:17:31;2.22;71.18
20862;DHT22;10591;52.532;13.348;2023-02-28T01:20:02;2.16;70.99
20862;DHT22;10591;52.532;13.348;2023-02-28T01:22:35;2.08;70.95
20862;DHT22;10591;52.532;13.348;2023-02-28T01:25:05;2.10;71.41
20862;DHT22;10591;52.532;13.348;2023-02-28T01:27:35;2.06;71.58
20862;DHT22;10591;52.532;13.348;2023-02-28T01:30:07;1.91;71.55
20862;DHT22;10591;52.532;13.348;2023-02-28T01:32:38;1.82;71.69
20862;DHT22;10591;52.532;13.348;2023-02-28T01:35:09;1.88;71.62
20862;DHT22;10591;52.532;13.348;2023-02-28T01:37:39;1.89;72.13
20862;DHT22;10591;52.532;13.348;2023-02-28T01:40:12;1.90;71.93
20862;DHT22;10591;52.532;13.348;2023-02-28T01:42:43;1.82;72.39
20862;DHT22;10591;52.532;13.348;2023-02-28T01:48:03;1.76;72.44
20862;DHT22;10591;52.532;13.348;2023-02-28T01:50:39;1.76;72.21
20862;DHT22;10591;52.532;13.348;2023-02-28T01:53:13;1.82;72.06
20862;DHT22;10591;52.532;13.348;2023-02-28T01:55:47;1.76;72.21
20862;DHT22;10591;52.532;13.348;2023-02-28T01:58:18;1.82;72.29
20862;DHT22;10591;52.532;13.348;2023-02-28T02:00:49;1.77;72.08
20862;DHT22;10591;52.532;13.348;2023-02-28T02:03:20;1.80;72.14
20862;DHT22;10591;52.532;13.348;2023-02-28T02:05:51;1.69;72.49
20862;DHT22;10591;52.532;13.348;2023-02-28T02:08:25;1.76;72.23
20862;DHT22;10591;52.532;13.348;2023-02-28T02:11:00;1.64;72.53
20862;DHT22;10591;52.532;13.348;2023-02-28T02:13:46;1.59;72.92
20862;DHT22;10591;52.532;13.348;2023-02-28T02:19:40;1.46;73.47
20862;DHT22;10591;52.532;13.348;2023-02-28T02:38:52;1.12;74.91
20862;DHT22;10591;52.532;13.348;2023-02-28T02:41:39;1.04;75.16
20862;DHT22;10591;52.532;13.348;2023-02-28T02:44:11;1.06;75.41
20862;DHT22;10591;52.532;13.348;2023-02-28T02:46:44;1.04;75.83
20862;DHT22;10591;52.532;13.348;2023-02-28T02:49:19;1.06;75.39
20862;DHT22;10591;52.532;13.348;2023-02-28T02:51:50;0.88;75.98
20862;DHT22;10591;52.532;13.348;2023-02-28T02:54:25;0.76;76.39
20862;DHT22;10591;52.532;13.348;2023-02-28T02:57:00;0.72;77.09
20862;DHT22;10591;52.532;13.348;2023-02-28T02:59:30;0.76;77.12
20862;DHT22;10591;52.532;13.348;2023-02-28T03:02:04;0.91;76.47
20862;DHT22;10591;52.532;13.348;2023-02-28T03:04:45;0.70;76.98
20862;DHT22;10591;52.532;13.348;2023-02-28T03:07:15;0.80;76.86
20862;DHT22;10591;52.532;13.348;2023-02-28T03:09:54;0.68;77.17
20862;DHT22;10591;52.532;13.348;2023-02-28T03:12:46;0.58;77.22
20862;DHT22;10591;52.532;13.348;2023-02-28T03:15:20;0.64;77.62
20862;DHT22;10591;52.532;13.348;2023-02-28T03:18:06;0.56;77.48
20862;DHT22;10591;52.532;13.348;2023-02-28T03:23:35;0.62;77.37
20862;DHT22;10591;52.532;13.348;2023-02-28T03:26:12;0.29;78.30
20862;DHT22;10591;52.532;13.348;2023-02-28T03:31:40;0.43;77.88
20862;DHT22;10591;52.532;13.348;2023-02-28T03:34:17;0.48;77.58
20862;DHT22;10591;52.532;13.348;2023-02-28T03:36:51;0.24;78.31
20862;DHT22;10591;52.532;13.348;2023-02-28T03:42:14;0.36;78.50
20862;DHT22;10591;52.532;13.348;2023-02-28T03:47:45;0.34;78.12
20862;DHT22;10591;52.532;13.348;2023-02-28T03:50:20;0.33;78.26
20862;DHT22;10591;52.532;13.348;2023-02-28T03:52:39;0.47;78.19
20862;DHT22;10591;52.532;13.348;2023-02-28T03:55:12;0.56;78.02
20862;DHT22;10591;52.532;13.348;2023-02-28T03:57:56;0.26;78.46
20862;DHT22;10591;52.532;13.348;2023-02-28T04:00:31;0.21;78.94
20862;DHT22;10591;52.532;13.348;2023-02-28T04:03:02;0.34;78.97
20862;DHT22;10591;52.532;13.348;2023-02-28T04:05:33;0.23;79.06
20862;DHT22;10591;52.532;13.348;2023-02-28T04:08:07;0.04;79.61
20862;DHT22;10591;52.532;13.348;2023-02-28T04:10:38;-0.08;80.22
20862;DHT22;10591;52.532;13.348;2023-02-28T04:13:11;-0.05;80.00
20862;DHT22;10591;52.532;13.348;2023-02-28T04:15:41;0.32;79.35
20862;DHT22;10591;52.532;13.348;2023-02-28T04:18:12;0.16;78.91
20862;DHT22;10591;52.532;13.348;2023-02-28T04:20:43;0.14;79.00
20862;DHT22;10591;52.532;13.348;2023-02-28T04:23:14;0.19;79.17
20862;DHT22;10591;52.532;13.348;2023-02-28T04:25:45;0.12;79.30
20862;DHT22;10591;52.532;13.348;2023-02-28T04:28:17;0.14;79.20
20862;DHT22;10591;52.532;13.348;2023-02-28T04:30:53;-0.03;80.06
20862;DHT22;10591;52.532;13.348;2023-02-28T04:33:20;-0.26;80.67
20862;DHT22;10591;52.532;13.348;2023-02-28T04:36:02;-0.24;81.04
20862;DHT22;10591;52.532;13.348;2023-02-28T04:38:40;-0.31;81.32
20862;DHT22;10591;52.532;13.348;2023-02-28T04:41:07;-0.42;81.52
20862;DHT22;10591;52.532;13.348;2023-02-28T04:43:38;-0.46;81.61
20862;DHT22;10591;52.532;13.348;2023-02-28T04:46:09;-0.52;81.66
20862;DHT22;10591;52.532;13.348;2023-02-28T04:48:40;-0.64;82.07
20862;DHT22;10591;52.532;13.348;2023-02-28T04:51:13;-0.69;82.23
20862;DHT22;10591;52.532;13.348;2023-02-28T04:53:44;-0.67;82.53
20862;DHT22;10591;52.532;13.348;2023-02-28T04:56:16;-0.72;82.63
20862;DHT22;10591;52.532;13.348;2023-02-28T04:58:47;-0.75;82.85
20862;DHT22;10591;52.532;13.348;2023-02-28T05:01:24;-0.74;82.89
20862;DHT22;10591;52.532;13.348;2023-02-28T05:03:57;-0.78;82.89
20862;DHT22;10591;52.532;13.348;2023-02-28T05:06:31;-0.42;82.57
20862;DHT22;10591;52.532;13.348;2023-02-28T05:09:02;-0.26;81.93
20862;DHT22;10591;52.532;13.348;2023-02-28T05:11:34;-0.27;81.36
20862;DHT22;10591;52.532;13.348;2023-02-28T05:14:09;-0.30;81.19
20862;DHT22;10591;52.532;13.348;2023-02-28T05:16:39;-0.22;81.07
20862;DHT22;10591;52.532;13.348;2023-02-28T05:19:09;-0.14;80.68
20862;DHT22;10591;52.532;13.348;2023-02-28T05:21:54;-0.17;81.36
20862;DHT22;10591;52.532;13.348;2023-02-28T05:24:14;-0.07;80.67
20862;DHT22;10591;52.532;13.348;2023-02-28T05:26:45;-0.01;80.85
20862;DHT22;10591;52.532;13.348;2023-02-28T05:29:15;-0.06;80.37
20862;DHT22;10591;52.532;13.348;2023-02-28T05:31:46;0.00;80.25
20862;DHT22;10591;52.532;13.348;2023-02-28T05:34:17;-0.12;80.35
20862;DHT22;10591;52.532;13.348;2023-02-28T05:36:48;-0.18;80.57
20862;DHT22;10591;52.532;13.348;2023-02-28T05:39:18;-0.06;80.92
20862;DHT22;10591;52.532;13.348;2023-02-28T05:41:50;-0.18;81.17
20862;DHT22;10591;52.532;13.348;2023-02-28T05:44:21;-0.24;81.30
20862;DHT22;10591;52.532;13.348;2023-02-28T05:46:51;-0.22;81.43
20862;DHT22;10591;52.532;13.348;2023-02-28T05:49:22;-0.14;81.09
20862;DHT22;10591;52.532;13.348;2023-02-28T05:51:53;-0.09;80.74
20862;DHT22;10591;52.532;13.348;2023-02-28T05:54:23;-0.04;80.49
20862;DHT22;10591;52.532;13.348;2023-02-28T05:56:53;-0.14;80.68
20862;DHT22;10591;52.532;13.348;2023-02-28T05:59:24;-0.28;81.19
20862;DHT22;10591;52.532;13.348;2023-02-28T06:01:55;-0.52;81.94
20862;DHT22;10591;52.532;13.348;2023-02-28T06:04:26;-0.58;82.26
20862;DHT22;10591;52.532;13.348;2023-02-28T06:06:58;-0.61;82.35
20862;DHT22;10591;52.532;13.348;2023-02-28T06:09:29;-0.74;82.74
20862;DHT22;10591;52.532;13.348;2023-02-28T06:12:02;-0.68;82.87
20862;DHT22;10591;52.532;13.348;2023-02-28T06:14:34;-0.70;82.91
20862;DHT22;10591;52.532;13.348;2023-02-28T06:17:05;-0.72;83.08
20862;DHT22;10591;52.532;13.348;2023-02-28T06:19:38;-0.76;83.10
20862;DHT22;10591;52.532;13.348;2023-02-28T06:22:10;-0.76;83.27
20862;DHT22;10591;52.532;13.348;2023-02-28T06:24:43;-0.66;82.92
20862;DHT22;10591;52.532;13.348;2023-02-28T06:27:13;-0.58;82.62
20862;DHT22;10591;52.532;13.348;2023-02-28T06:29:43;-0.47;82.40
20862;DHT22;10591;52.532;13.348;2023-02-28T06:32:14;-0.43;82.32
20862;DHT22;10591;52.532;13.348;2023-02-28T06:34:45;-0.42;82.30
20862;DHT22;10591;52.532;13.348;2023-02-28T06:37:16;-0.38;82.13
20862;DHT22;10591;52.532;13.348;2023-02-28T06:39:46;-0.18;81.81
20862;DHT22;10591;52.532;13.348;2023-02-28T06:42:17;-0.22;81.38
20862;DHT22;10591;52.532;13.348;2023-02-28T06:44:48;-0.08;81.28
20862;DHT22;10591;52.532;13.348;2023-02-28T06:47:20;0.05;80.80
20862;DHT22;10591;52.532;13.348;2023-02-28T06:49:52;0.01;80.63
20862;DHT22;10591;52.532;13.348;2023-02-28T06:52:23;0.12;80.41
20862;DHT22;10591;52.532;13.348;2023-02-28T06:54:53;0.26;80.08
20862;DHT22;10591;52.532;13.348;2023-02-28T06:57:28;0.39;79.64
20862;DHT22;10591;52.532;13.348;2023-02-28T07:00:02;0.42;79.10
20862;DHT22;10591;52.532;13.348;2023-02-28T07:02:40;0.54;78.40
20862;DHT22;10591;52.532;13.348;2023-02-28T07:05:07;0.66;77.53
20862;DHT22;10591;52.532;13.348;2023-02-28T07:07:39;0.78;77.02
20862;DHT22;10591;52.532;13.348;2023-02-28T07:10:13;0.96;75.57
20862;DHT22;10591;52.532;13.348;2023-02-28T07:12:47;1.06;75.49
20862;DHT22;10591;52.532;13.348;2023-02-28T07:15:18;1.07;75.39
20862;DHT22;10591;52.532;13.348;2023-02-28T07:17:48;1.24;74.57
20862;DHT22;10591;52.532;13.348;2023-02-28T07:20:19;1.32;74.16
20862;DHT22;10591;52.532;13.348;2023-02-28T07:22:51;1.25;73.70
20862;DHT22;10591;52.532;13.348;2023-02-28T07:25:24;1.40;73.86
20862;DHT22;10591;52.532;13.348;2023-02-28T07:27:55;1.57;73.84
20862;DHT22;10591;52.532;13.348;2023-02-28T07:30:26;1.42;73.12
20862;DHT22;10591;52.532;13.348;2023-02-28T07:32:57;1.56;74.22
20862;DHT22;10591;52.532;13.348;2023-02-28T07:35:28;1.62;74.07
20862;DHT22;10591;52.532;13.348;2023-02-28T07:38:00;1.70;72.47
20862;DHT22;10591;52.532;13.348;2023-02-28T07:40:30;2.02;70.40
20862;DHT22;10591;52.532;13.348;2023-02-28T07:43:02;1.92;70.56
20862;DHT22;10591;52.532;13.348;2023-02-28T07:45:33;2.12;71.13
20862;DHT22;10591;52.532;13.348;2023-02-28T07:48:04;2.15;71.67
20862;DHT22;10591;52.532;13.348;2023-02-28T07:50:34;2.36;70.82
20862;DHT22;10591;52.532;13.348;2023-02-28T07:53:05;2.49;67.31
20862;DHT22;10591;52.532;13.348;2023-02-28T07:55:36;2.44;67.68
20862;DHT22;10591;52.532;13.348;2023-02-28T07:58:06;2.57;65.95
20862;DHT22;10591;52.532;13.348;2023-02-28T08:00:37;2.60;66.09
20862;DHT22;10591;52.532;13.348;2023-02-28T08:03:12;2.86;64.11
20862;DHT22;10591;52.532;13.348;2023-02-28T08:05:43;3.05;61.44
20862;DHT22;10591;52.532;13.348;2023-02-28T08:08:15;3.08;59.21
20862;DHT22;10591;52.532;13.348;2023-02-28T08:10:46;3.02;60.38
20862;DHT22;10591;52.532;13.348;2023-02-28T08:13:17;3.22;59.06
20862;DHT22;10591;52.532;13.348;2023-02-28T08:15:47;3.02;56.48
20862;DHT22;10591;52.532;13.348;2023-02-28T08:18:18;3.06;58.84
20862;DHT22;10591;52.532;13.348;2023-02-28T08:20:48;3.18;54.42
20862;DHT22;10591;52.532;13.348;2023-02-28T08:23:19;3.24;53.38
20862;DHT22;10591;52.532;13.348;2023-02-28T08:25:55;3.22;51.82
20862;DHT22;10591;52.532;13.348;2023-02-28T08:28:28;3.28;51.56
20862;DHT22;10591;52.532;13.348;2023-02-28T08:30:59;3.34;50.74
20862;DHT22;10591;52.532;13.348;2023-02-28T08:33:29;3.21;50.81
20862;DHT22;10591;52.532;13.348;2023-02-28T08:36:03;3.57;50.64
20862;DHT22;10591;52.532;13.348;2023-02-28T08:38:36;3.52;50.52
20862;DHT22;10591;52.532;13.348;2023-02-28T08:41:09;3.74;50.22
20862;DHT22;10591;52.532;13.348;2023-02-28T08:43:40;3.88;49.76
20862;DHT22;10591;52.532;13.348;2023-02-28T08:46:13;3.82;48.73
20862;DHT22;10591;52.532;13.348;2023-02-28T08:48:44;3.83;48.92
20862;DHT22;10591;52.532;13.348;2023-02-28T08:51:16;3.96;49.69
20862;DHT22;10591;52.532;13.348;2023-02-28T08:53:54;3.86;48.22
20862;DHT22;10591;52.532;13.348;2023-02-28T08:56:26;3.91;47.80
20862;DHT22;10591;52.532;13.348;2023-02-28T08:58:57;3.64;48.10
20862;DHT22;10591;52.532;13.348;2023-02-28T09:01:28;3.74;48.24
20862;DHT22;10591;52.532;13.348;2023-02-28T09:04:00;3.88;48.31
20862;DHT22;10591;52.532;13.348;2023-02-28T09:06:33;3.92;48.11
20862;DHT22;10591;52.532;13.348;2023-02-28T09:09:05;3.82;47.55
20862;DHT22;10591;52.532;13.348;2023-02-28T09:11:39;4.08;47.43
20862;DHT22;10591;52.532;13.348;2023-02-28T09:14:11;4.38;47.89
20862;DHT22;10591;52.532;13.348;2023-02-28T09:16:42;4.45;47.02
20862;DHT22;10591;52.532;13.348;2023-02-28T09:19:13;4.24;46.66
20862;DHT22;10591;52.532;13.348;2023-02-28T09:21:44;4.06;47.18
20862;DHT22;10591;52.532;13.348;2023-02-28T09:24:16;4.08;47.30
20862;DHT22;10591;52.532;13.348;2023-02-28T09:26:47;4.18;47.08
20862;DHT22;10591;52.532;13.348;2023-02-28T09:29:19;4.46;46.81
20862;DHT22;10591;52.532;13.348;2023-02-28T09:31:51;4.34;46.76
20862;DHT22;10591;52.532;13.348;2023-02-28T09:34:22;4.16;46.70
20862;DHT22;10591;52.532;13.348;2023-02-28T09:36:54;4.16;46.98
20862;DHT22;10591;52.532;13.348;2023-02-28T09:39:24;4.17;46.52
20862;DHT22;10591;52.532;13.348;2023-02-28T09:41:59;4.44;46.90
20862;DHT22;10591;52.532;13.348;2023-02-28T09:44:43;4.76;47.03
20862;DHT22;10591;52.532;13.348;2023-02-28T09:47:41;4.60;45.72
20862;DHT22;10591;52.532;13.348;2023-02-28T09:49:59;4.65;46.22
20862;DHT22;10591;52.532;13.348;2023-02-28T09:52:32;4.39;46.49
20862;DHT22;10591;52.532;13.348;2023-02-28T09:55:34;4.22;46.99
20862;DHT22;10591;52.532;13.348;2023-02-28T09:58:02;4.49;47.48
20862;DHT22;10591;52.532;13.348;2023-02-28T10:00:37;4.60;46.73
20862;DHT22;10591;52.532;13.348;2023-02-28T10:03:42;4.46;46.31
20862;DHT22;10591;52.532;13.348;2023-02-28T10:06:20;4.58;46.76
20862;DHT22;10591;52.532;13.348;2023-02-28T10:09:07;4.56;46.35
20862;DHT22;10591;52.532;13.348;2023-02-28T10:11:40;4.54;46.72
20862;DHT22;10591;52.532;13.348;2023-02-28T10:14:23;4.05;46.88
20862;DHT22;10591;52.532;13.348;2023-02-28T10:22:58;4.51;46.50
20862;DHT22;10591;52.532;13.348;2023-02-28T10:25:20;4.56;46.57
20862;DHT22;10591;52.532;13.348;2023-02-28T10:27:58;4.62;46.40
20862;DHT22;10591;52.532;13.348;2023-02-28T10:30:29;4.84;46.34
20862;DHT22;10591;52.532;13.348;2023-02-28T10:32:59;5.02;45.99
20862;DHT22;10591;52.532;13.348;2023-02-28T10:35:31;4.82;45.99
20862;DHT22;10591;52.532;13.348;2023-02-28T10:38:12;4.99;45.80
20862;DHT22;10591;52.532;13.348;2023-02-28T10:40:39;4.94;45.82
20862;DHT22;10591;52.532;13.348;2023-02-28T10:45:58;4.61;46.58
20862;DHT22;10591;52.532;13.348;2023-02-28T10:51:18;4.82;46.17
20862;DHT22;10591;52.532;13.348;2023-02-28T10:53:56;4.78;45.68
20862;DHT22;10591;52.532;13.348;2023-02-28T10:56:29;4.90;45.94
20862;DHT22;10591;52.532;13.348;2023-02-28T11:01:44;4.80;45.83
20862;DHT22;10591;52.532;13.348;2023-02-28T11:09:39;4.78;45.74
20862;DHT22;10591;52.532;13.348;2023-02-28T11:12:26;4.68;45.94
20862;DHT22;10591;52.532;13.348;2023-02-28T11:15:01;4.84;45.87
20862;DHT22;10591;52.532;13.348;2023-02-28T11:17:40;4.72;46.04
20862;DHT22;10591;52.532;13.348;2023-02-28T11:20:14;4.54;46.39
20862;DHT22;10591;52.532;13.348;2023-02-28T11:22:43;4.56;46.45
20862;DHT22;10591;52.532;13.348;2023-02-28T11:25:35;4.72;46.47
20862;DHT22;10591;52.532;13.348;2023-02-28T11:28:26;4.91;46.07
20862;DHT22;10591;52.532;13.348;2023-02-28T11:33:53;4.98;46.10
20862;DHT22;10591;52.532;13.348;2023-02-28T11:36:27;5.30;45.62
20862;DHT22;10591;52.532;13.348;2023-02-28T11:39:08;5.40;45.04
20862;DHT22;10591;52.532;13.348;2023-02-28T11:41:47;5.26;44.93
20862;DHT22;10591;52.532;13.348;2023-02-28T11:47:15;5.38;45.23
20862;DHT22;10591;52.532;13.348;2023-02-28T11:53:01;5.12;45.78
20862;DHT22;10591;52.532;13.348;2023-02-28T11:55:41;5.26;45.61
20862;DHT22;10591;52.532;13.348;2023-02-28T12:00:54;5.74;45.12
20862;DHT22;10591;52.532;13.348;2023-02-28T12:03:43;5.63;44.88
20862;DHT22;10591;52.532;13.348;2023-02-28T12:06:29;5.77;44.93
20862;DHT22;10591;52.532;13.348;2023-02-28T12:18:18;5.50;46.04
20862;DHT22;10591;52.532;13.348;2023-02-28T12:28:45;5.49;45.76
20862;DHT22;10591;52.532;13.348;2023-02-28T12:31:26;5.66;45.66
20862;DHT22;10591;52.532;13.348;2023-02-28T12:34:04;5.74;45.49
20862;DHT22;10591;52.532;13.348;2023-02-28T12:36:37;5.62;45.47
20862;DHT22;10591;52.532;13.348;2023-02-28T12:39:16;5.70;45.05
20862;DHT22;10591;52.532;13.348;2023-02-28T12:42:12;5.31;45.41
20862;DHT22;10591;52.532;13.348;2023-02-28T12:44:49;5.26;46.11
20862;DHT22;10591;52.532;13.348;2023-02-28T12:47:19;5.46;45.89
20862;DHT22;10591;52.532;13.348;2023-02-28T12:52:51;5.61;45.57
20862;DHT22;10591;52.532;13.348;2023-02-28T12:55:27;5.58;45.28
20862;DHT22;10591;52.532;13.348;2023-02-28T12:58:07;5.26;46.01
20862;DHT22;10591;52.532;13.348;2023-02-28T13:00:38;5.51;45.83
20862;DHT22;10591;52.532;13.348;2023-02-28T13:03:24;5.60;45.41
20862;DHT22;10591;52.532;13.348;2023-02-28T13:08:59;5.68;44.92
20862;DHT22;10591;52.532;13.348;2023-02-28T13:11:33;5.58;44.94
20862;DHT22;10591;52.532;13.348;2023-02-28T13:14:20;5.59;44.91
20862;DHT22;10591;52.532;13.348;2023-02-28T13:19:29;5.34;44.85
20862;DHT22;10591;52.532;13.348;2023-02-28T13:22:36;5.30;45.15
20862;DHT22;10591;52.532;13.348;2023-02-28T13:24:54;5.62;45.22
20862;DHT22;10591;52.532;13.348;2023-02-28T13:27:41;5.90;44.26
20862;DHT22;10591;52.532;13.348;2023-02-28T13:36:28;5.80;44.32
20862;DHT22;10591;52.532;13.348;2023-02-28T13:39:02;5.70;44.74
20862;DHT22;10591;52.532;13.348;2023-02-28T13:41:40;5.73;44.80
20862;DHT22;10591;52.532;13.348;2023-02-28T13:44:25;5.85;44.35
20862;DHT22;10591;52.532;13.348;2023-02-28T13:49:34;6.18;43.73
20862;DHT22;10591;52.532;13.348;2023-02-28T13:52:12;6.61;42.96
20862;DHT22;10591;52.532;13.348;2023-02-28T13:57:41;6.40;43.57
20862;DHT22;10591;52.532;13.348;2023-02-28T14:00:34;6.02;44.40
20862;DHT22;10591;52.532;13.348;2023-02-28T14:05:44;5.77;45.34
20862;DHT22;10591;52.532;13.348;2023-02-28T14:08:20;6.16;45.26
20862;DHT22;10591;52.532;13.348;2023-02-28T14:11:03;6.21;45.55
20862;DHT22;10591;52.532;13.348;2023-02-28T14:13:42;5.96;45.73
20862;DHT22;10591;52.532;13.348;2023-02-28T14:16:36;6.10;45.91
20862;DHT22;10591;52.532;13.348;2023-02-28T14:19:09;6.08;45.93
20862;DHT22;10591;52.532;13.348;2023-02-28T14:21:38;6.08;45.53
20862;DHT22;10591;52.532;13.348;2023-02-28T14:24:31;6.20;45.11
20862;DHT22;10591;52.532;13.348;2023-02-28T14:30:03;6.36;44.26
20862;DHT22;10591;52.532;13.348;2023-02-28T14:38:17;5.97;45.89
20862;DHT22;10591;52.532;13.348;2023-02-28T14:40:47;6.23;45.05
20862;DHT22;10591;52.532;13.348;2023-02-28T14:43:27;6.47;44.77
20862;DHT22;10591;52.532;13.348;2023-02-28T14:46:04;6.19;45.07
20862;DHT22;10591;52.532;13.348;2023-02-28T14:48:35;6.05;45.49
20862;DHT22;10591;52.532;13.348;2023-02-28T14:51:07;5.76;46.04
20862;DHT22;10591;52.532;13.348;2023-02-28T14:53:39;5.76;46.51
20862;DHT22;10591;52.532;13.348;2023-02-28T14:56:28;5.70;47.02
20862;DHT22;10591;52.532;13.348;2023-02-28T14:58:57;5.62;46.80
20862;DHT22;10591;52.532;13.348;2023-02-28T15:01:27;5.74;46.60
20862;DHT22;10591;52.532;13.348;2023-02-28T15:04:06;5.72;46.50
20862;DHT22;10591;52.532;13.348;2023-02-28T15:06:37;5.72;46.72
20862;DHT22;10591;52.532;13.348;2023-02-28T15:09:16;5.58;47.07
20862;DHT22;10591;52.532;13.348;2023-02-28T15:11:50;5.70;46.62
20862;DHT22;10591;52.532;13.348;2023-02-28T15:14:22;5.59;47.53
20862;DHT22;10591;52.532;13.348;2023-02-28T15:17:02;5.55;47.50
20862;DHT22;10591;52.532;13.348;2023-02-28T15:19:34;5.44;47.73
20862;DHT22;10591;52.532;13.348;2023-02-28T15:22:13;5.44;48.13
20862;DHT22;10591;52.532;13.348;2023-02-28T15:24:48;5.36;48.03
20862;DHT22;10591;52.532;13.348;2023-02-28T15:27:20;5.36;48.20
20862;DHT22;10591;52.532;13.348;2023-02-28T15:29:54;5.11;48.20
20862;DHT22;10591;52.532;13.348;2023-02-28T15:32:37;5.08;48.44
20862;DHT22;10591;52.532;13.348;2023-02-28T15:40:46;5.12;49.08
20862;DHT22;10591;52.532;13.348;2023-02-28T15:46:10;4.98;49.16
20862;DHT22;10591;52.532;13.348;2023-02-28T15:48:55;4.89;48.84
20862;DHT22;10591;52.532;13.348;2023-02-28T15:51:30;4.84;49.05
20862;DHT22;10591;52.532;13.348;2023-02-28T15:54:06;4.80;49.62
20862;DHT22;10591;52.532;13.348;2023-02-28T15:56:38;4.83;49.47
20862;DHT22;10591;52.532;13.348;2023-02-28T15:59:13;4.88;49.41
20862;DHT22;10591;52.532;13.348;2023-02-28T16:01:41;4.76;49.64
20862;DHT22;10591;52.532;13.348;2023-02-28T16:04:18;4.65;50.23
20862;DHT22;10591;52.532;13.348;2023-02-28T16:07:01;4.66;50.35
20862;DHT22;10591;52.532;13.348;2023-02-28T16:09:31;4.54;51.14
20862;DHT22;10591;52.532;13.348;2023-02-28T16:12:03;4.53;51.29
20862;DHT22;10591;52.532;13.348;2023-02-28T16:14:36;4.65;50.41
20862;DHT22;10591;52.532;13.348;2023-02-28T16:17:23;4.55;50.99
20862;DHT22;10591;52.532;13.348;2023-02-28T16:19:55;4.45;51.64
20862;DHT22;10591;52.532;13.348;2023-02-28T16:22:25;4.40;51.83
20862;DHT22;10591;52.532;13.348;2023-02-28T16:24:56;4.33;52.15
20862;DHT22;10591;52.532;13.348;2023-02-28T16:27:32;4.34;52.09
20862;DHT22;10591;52.532;13.348;2023-02-28T16:30:05;4.39;52.40
20862;DHT22;10591;52.532;13.348;2023-02-28T16:32:36;4.27;52.62
20862;DHT22;10591;52.532;13.348;2023-02-28T16:35:13;4.36;52.66
20862;DHT22;10591;52.532;13.348;2023-02-28T16:37:41;4.12;53.16
20862;DHT22;10591;52.532;13.348;2023-02-28T16:40:15;4.16;53.13
20862;DHT22;10591;52.532;13.348;2023-02-28T16:42:48;4.06;53.64
20862;DHT22;10591;52.532;13.348;2023-02-28T16:45:29;4.08;53.59
20862;DHT22;10591;52.532;13.348;2023-02-28T16:47:55;4.03;53.29
20862;DHT22;10591;52.532;13.348;2023-02-28T16:50:28;4.00;53.58
20862;DHT22;10591;52.532;13.348;2023-02-28T16:52:59;3.89;54.24
20862;DHT22;10591;52.532;13.348;2023-02-28T16:55:30;4.02;54.57
20862;DHT22;10591;52.532;13.348;2023-02-28T16:58:02;3.94;53.83
20862;DHT22;10591;52.532;13.348;2023-02-28T17:00:33;3.92;53.54
20862;DHT22;10591;52.532;13.348;2023-02-28T17:03:07;3.79;53.96
20862;DHT22;10591;52.532;13.348;2023-02-28T17:05:38;3.78;54.60
20862;DHT22;10591;52.532;13.348;2023-02-28T17:08:09;3.64;54.64
20862;DHT22;10591;52.532;13.348;2023-02-28T17:10:41;3.68;54.59
20862;DHT22;10591;52.532;13.348;2023-02-28T17:13:12;3.60;54.57
20862;DHT22;10591;52.532;13.348;2023-02-28T17:15:45;3.58;54.57
20862;DHT22;10591;52.532;13.348;2023-02-28T17:18:18;3.48;55.08
20862;DHT22;10591;52.532;13.348;2023-02-28T17:20:49;3.42;55.24
20862;DHT22;10591;52.532;13.348;2023-02-28T17:23:19;3.39;55.44
20862;DHT22;10591;52.532;13.348;2023-02-28T17:25:50;3.26;55.99
20862;DHT22;10591;52.532;13.348;2023-02-28T17:28:25;3.30;54.96
20862;DHT22;10591;52.532;13.348;2023-02-28T17:30:56;3.33;55.80
20862;DHT22;10591;52.532;13.348;2023-02-28T17:33:27;3.18;55.75
20862;DHT22;10591;52.532;13.348;2023-02-28T17:35:59;3.28;55.42
20862;DHT22;10591;52.532;13.348;2023-02-28T17:38:31;3.24;56.42
20862;DHT22;10591;52.532;13.348;2023-02-28T17:41:02;3.26;56.71
20862;DHT22;10591;52.532;13.348;2023-02-28T17:43:32;3.22;55.93
20862;DHT22;10591;52.532;13.348;2023-02-28T17:46:03;3.18;55.38
20862;DHT22;10591;52.532;13.348;2023-02-28T17:48:34;3.22;55.56
20862;DHT22;10591;52.532;13.348;2023-02-28T17:51:05;3.27;55.25
20862;DHT22;10591;52.532;13.348;2023-02-28T17:53:38;3.10;55.91
20862;DHT22;10591;52.532;13.348;2023-02-28T17:56:14;2.96;56.32
20862;DHT22;10591;52.532;13.348;2023-02-28T17:58:47;3.17;56.56
20862;DHT22;10591;52.532;13.348;2023-02-28T18:01:18;2.99;57.53
20862;DHT22;10591;52.532;13.348;2023-02-28T18:03:49;2.84;58.07
20862;DHT22;10591;52.532;13.348;2023-02-28T18:06:30;3.04;57.90
20862;DHT22;10591;52.532;13.348;2023-02-28T18:08:57;2.97;57.41
20862;DHT22;10591;52.532;13.348;2023-02-28T18:11:27;3.01;57.76